createdAt,value
2023-04-27T00:02:07.387Z,100060.08
2023-04-27T00:07:10.262Z,100064.04
2023-04-27T00:12:12.982Z,100067.48
2023-04-27T00:17:15.730Z,100073.91
2023-04-27T00:22:18.505Z,100075.41
2023-04-27T00:27:21.364Z,100079.14
2023-04-27T00:32:24.139Z,100082.33
2023-04-27T00:37:26.959Z,100086.63
2023-04-27T00:42:30.171Z,100086.67
2023-04-27T00:47:33.457Z,100090.95
2023-04-27T00:52:37.520Z,100091.31
2023-04-27T00:57:40.272Z,100095.12
2023-04-27T01:02:43.569Z,100092.80
2023-04-27T01:07:46.469Z,100095.23
2023-04-27T01:12:49.240Z,100099.66
2023-04-27T01:18:02.100Z,100102.64
2023-04-27T01:23:04.962Z,100106.21
2023-04-27T01:28:07.770Z,100102.05
2023-04-27T01:33:11.018Z,100099.23
2023-04-27T01:38:13.824Z,100099.46
2023-04-27T01:43:16.696Z,100105.72
2023-04-27T01:48:19.601Z,100109.02
2023-04-27T01:53:22.399Z,100108.77
2023-04-27T01:58:25.635Z,100112.73
2023-04-27T02:03:28.492Z,100119.61
2023-04-27T02:08:31.410Z,100117.22
2023-04-27T02:13:34.145Z,100118.71
2023-04-27T02:18:36.930Z,100113.65
2023-04-27T02:23:39.699Z,100112.60
2023-04-27T02:28:42.621Z,100114.15
2023-04-27T02:33:45.944Z,100116.66
2023-04-27T02:38:48.702Z,100115.74
2023-04-27T02:43:51.788Z,100117.40
2023-04-27T02:48:56.289Z,100117.29
2023-04-27T02:53:59.106Z,100118.69
2023-04-27T02:59:01.913Z,100121.55
2023-04-27T03:04:05.121Z,100123.42
2023-04-27T03:09:09.215Z,100129.08
2023-04-27T03:14:13.614Z,100131.30
2023-04-27T03:19:16.881Z,100137.88
2023-04-27T03:24:19.798Z,100141.23
2023-04-27T03:29:23.004Z,100141.80
2023-04-27T03:34:25.805Z,100144.09
2023-04-27T03:39:28.707Z,100147.08
2023-04-27T03:44:33.656Z,100150.28
2023-04-27T03:49:36.774Z,100150.55
2023-04-27T03:54:39.524Z,100153.81
2023-04-27T03:59:42.782Z,100157.52
2023-04-27T04:04:46.061Z,100163.61
2023-04-27T04:09:49.054Z,100160.64
2023-04-27T04:14:51.825Z,100165.09
2023-04-27T04:19:54.718Z,100173.30
2023-04-27T04:24:57.817Z,100173.94
2023-04-27T04:30:00.896Z,100175.50
2023-04-27T04:35:05.578Z,100176.88
2023-04-27T04:40:09.172Z,100176.48
2023-04-27T04:45:12.195Z,100177.05
2023-04-27T04:50:15.000Z,100178.40
2023-04-27T04:55:18.359Z,100183.38
2023-04-27T05:00:22.673Z,100183.98
2023-04-27T05:05:25.552Z,100178.42
2023-04-27T05:10:28.279Z,100182.70
2023-04-27T05:15:31.380Z,100191.84
2023-04-27T05:20:38.392Z,100197.31
2023-04-27T05:25:44.060Z,100196.52
2023-04-27T05:30:47.835Z,100201.57
2023-04-27T05:35:50.761Z,100206.77
2023-04-27T05:40:57.441Z,100210.59
2023-04-27T05:46:00.604Z,100213.64
2023-04-27T05:51:04.487Z,100219.10
2023-04-27T05:56:08.412Z,100220.91
2023-04-27T06:01:11.482Z,100221.36
2023-04-27T06:06:14.230Z,100232.27
2023-04-27T06:11:17.285Z,100235.50
2023-04-27T06:16:20.988Z,100233.52
2023-04-27T06:21:24.076Z,100234.47
2023-04-27T06:26:27.457Z,100238.40
2023-04-27T06:31:31.135Z,100235.69
2023-04-27T06:36:34.225Z,100241.04
2023-04-27T06:41:37.548Z,100237.09
2023-04-27T06:46:40.974Z,100237.25
2023-04-27T06:51:43.954Z,100232.30
2023-04-27T06:56:47.112Z,100231.89
2023-04-27T07:01:50.066Z,100235.73
2023-04-27T07:06:53.730Z,100235.95
2023-04-27T07:11:58.561Z,100233.79
2023-04-27T07:17:01.608Z,100235.98
2023-04-27T07:22:04.435Z,100245.61
2023-04-27T07:27:07.436Z,100245.02
2023-04-27T07:32:10.298Z,100245.38
2023-04-27T07:37:13.261Z,100243.46
2023-04-27T07:42:16.261Z,100244.66
2023-04-27T07:47:19.046Z,100240.58
2023-04-27T07:52:22.345Z,100246.57
2023-04-27T07:57:25.442Z,100246.92
2023-04-27T08:02:31.848Z,100252.06
2023-04-27T08:07:38.318Z,100254.83
2023-04-27T08:12:44.549Z,100254.23
2023-04-27T08:17:47.489Z,100255.00
2023-04-27T08:22:51.334Z,100250.48
2023-04-27T08:27:54.127Z,100256.33
2023-04-27T08:32:59.272Z,100256.54
2023-04-27T08:38:02.153Z,100261.45
2023-04-27T08:43:04.956Z,100257.53
2023-04-27T08:48:08.693Z,100262.64
2023-04-27T08:53:24.048Z,100264.22
2023-04-27T08:58:37.334Z,100263.75
2023-04-27T09:03:40.324Z,100269.16
2023-04-27T09:08:48.801Z,100270.67
2023-04-27T09:13:51.775Z,100272.98
2023-04-27T09:18:56.157Z,100271.81
2023-04-27T09:23:59.127Z,100280.09
2023-04-27T09:29:02.123Z,100279.40
2023-04-27T09:34:04.931Z,100276.34
2023-04-27T09:39:08.253Z,100264.33
2023-04-27T09:44:10.938Z,100258.77
2023-04-27T09:49:14.880Z,100263.98
2023-04-27T09:54:18.881Z,100269.09
2023-04-27T09:59:56.096Z,100278.75
2023-04-27T10:05:26.920Z,100277.06
2023-04-27T10:10:29.802Z,100274.96
2023-04-27T10:15:32.447Z,100278.61
2023-04-27T10:20:37.372Z,100286.93
2023-04-27T10:25:41.904Z,100283.48
2023-04-27T10:30:48.568Z,100281.72
2023-04-27T10:35:57.317Z,100287.79
2023-04-27T10:41:03.107Z,100284.09
2023-04-27T10:46:14.783Z,100289.20
2023-04-27T10:51:18.040Z,100289.11
2023-04-27T10:56:21.327Z,100291.00
2023-04-27T11:01:25.548Z,100294.91
2023-04-27T11:06:30.882Z,100303.02
2023-04-27T11:11:34.132Z,100303.74
2023-04-27T11:16:45.534Z,100298.38
2023-04-27T11:21:48.703Z,100295.45
2023-04-27T11:26:53.840Z,100294.48
2023-04-27T11:31:56.843Z,100283.05
2023-04-27T11:42:22.268Z,100285.55
2023-04-27T11:47:27.776Z,100280.38
2023-04-27T11:52:32.116Z,100281.41
2023-04-27T11:57:38.510Z,100287.13
2023-04-27T12:02:42.700Z,100285.50
2023-04-27T12:07:46.343Z,100285.92
2023-04-27T12:12:49.097Z,100288.45
2023-04-27T12:17:51.935Z,100290.82
2023-04-27T12:22:55.922Z,100280.95
2023-04-27T12:27:58.731Z,100280.66
2023-04-27T12:33:02.649Z,100282.33
2023-04-27T12:38:05.904Z,100291.88
2023-04-27T12:43:09.783Z,100296.00
2023-04-27T12:48:12.876Z,100286.76
2023-04-27T12:53:15.803Z,100283.48
2023-04-27T12:58:18.611Z,100286.36
2023-04-27T13:03:21.625Z,100292.92
2023-04-27T13:08:24.519Z,100288.11
2023-04-27T13:13:28.231Z,100307.52
2023-04-27T13:18:32.876Z,100320.79
2023-04-27T13:23:37.621Z,100325.30
2023-04-27T13:28:41.154Z,100333.89
2023-04-27T13:33:44.615Z,100347.41
2023-04-27T13:38:47.455Z,100359.77
2023-04-27T13:43:50.280Z,100351.05
2023-04-27T13:48:53.492Z,100349.67
2023-04-27T13:53:56.189Z,100342.61
2023-04-27T13:58:58.905Z,100338.75
2023-04-27T14:04:02.489Z,100337.55
2023-04-27T14:09:05.916Z,100339.94
2023-04-27T14:14:08.601Z,100346.53
2023-04-27T14:19:16.042Z,100354.61
2023-04-27T14:24:19.483Z,100362.61
2023-04-27T14:29:22.555Z,100379.88
2023-04-27T14:34:25.651Z,100392.08
2023-04-27T14:39:28.562Z,100400.77
2023-04-27T14:44:31.602Z,100416.13
2023-04-27T14:49:34.353Z,100417.63
2023-04-27T14:54:38.658Z,100412.63
2023-04-27T14:59:41.652Z,100417.46
2023-04-27T15:04:44.553Z,100414.52
2023-04-27T15:09:47.327Z,100417.02
2023-04-27T15:14:51.871Z,100410.89
2023-04-27T15:19:54.761Z,100410.75
2023-04-27T15:24:57.659Z,100409.15
2023-04-27T15:30:01.096Z,100406.80
2023-04-27T15:35:06.887Z,100402.80
2023-04-27T15:40:10.582Z,100399.91
2023-04-27T15:45:13.387Z,100399.32
2023-04-27T15:50:17.967Z,100402.65
2023-04-27T15:55:22.200Z,100401.06
2023-04-27T16:00:24.961Z,100401.71
2023-04-27T16:05:27.830Z,100398.63
2023-04-27T16:10:30.673Z,100401.72
2023-04-27T16:15:33.473Z,100399.84
2023-04-27T16:20:36.660Z,100408.42
2023-04-27T16:25:39.605Z,100411.04
2023-04-27T16:30:42.393Z,100413.36
2023-04-27T16:35:45.919Z,100405.02
2023-04-27T16:40:49.248Z,100397.23
2023-04-27T16:45:52.042Z,100394.92
2023-04-27T16:50:55.762Z,100399.41
2023-04-27T16:56:02.219Z,100402.44
2023-04-27T17:01:05.211Z,100408.54
2023-04-27T17:06:08.151Z,100411.15
2023-04-27T17:11:12.082Z,100417.40
2023-04-27T17:16:16.406Z,100412.67
2023-04-27T17:21:21.776Z,100407.60
2023-04-27T17:26:24.534Z,100411.77
2023-04-27T17:31:28.043Z,100413.52
2023-04-27T17:36:31.663Z,100415.05
2023-04-27T17:41:36.928Z,100415.98
2023-04-27T17:46:46.751Z,100413.25
2023-04-27T17:51:49.762Z,100413.08
2023-04-27T17:56:52.966Z,100417.53
2023-04-27T18:01:55.825Z,100424.36
2023-04-27T18:06:58.874Z,100430.48
2023-04-27T18:12:02.495Z,100431.86
2023-04-27T18:17:05.965Z,100436.65
2023-04-27T18:22:09.578Z,100445.88
2023-04-27T18:27:12.344Z,100450.92
2023-04-27T18:32:15.108Z,100453.20
2023-04-27T18:37:17.853Z,100458.88
2023-04-27T18:42:20.622Z,100459.83
2023-04-27T18:47:23.533Z,100464.02
2023-04-27T18:52:26.540Z,100464.27
2023-04-27T18:57:29.292Z,100461.83
2023-04-27T19:02:33.096Z,100464.23
2023-04-27T19:07:37.005Z,100469.29
2023-04-27T19:12:40.534Z,100469.31
2023-04-27T19:17:43.449Z,100472.59
2023-04-27T19:22:47.171Z,100471.19
2023-04-27T19:27:49.952Z,100474.60
2023-04-27T19:32:52.845Z,100476.41
2023-04-27T19:37:56.228Z,100477.30
2023-04-27T19:42:59.064Z,100482.87
2023-04-27T19:48:01.890Z,100485.73
2023-04-27T19:53:04.788Z,100491.56
2023-04-27T19:58:07.725Z,100491.66
2023-04-27T20:03:12.681Z,100492.29
2023-04-27T20:08:16.456Z,100496.34
2023-04-27T20:13:19.211Z,100496.35
2023-04-27T20:18:22.160Z,100501.84
2023-04-27T20:23:25.612Z,100501.63
2023-04-27T20:28:30.379Z,100503.96
2023-04-27T20:33:33.398Z,100509.52
2023-04-27T20:38:36.196Z,100513.78
2023-04-27T20:43:40.173Z,100514.71
2023-04-27T20:48:43.056Z,100517.02
2023-04-27T20:53:45.983Z,100519.40
2023-04-27T20:58:48.977Z,100524.27
2023-04-27T21:03:52.530Z,100521.56
2023-04-27T21:08:55.493Z,100526.40
2023-04-27T21:13:58.308Z,100526.60
2023-04-27T21:19:01.341Z,100524.89
2023-04-27T21:24:08.260Z,100522.34
2023-04-27T21:29:11.521Z,100525.34
2023-04-27T21:34:14.812Z,100529.48
2023-04-27T21:39:17.935Z,100534.04
2023-04-27T21:44:20.949Z,100535.91
2023-04-27T21:49:23.717Z,100538.59
2023-04-27T21:54:26.470Z,100545.63
2023-04-27T21:59:29.285Z,100547.80
2023-04-27T22:04:38.399Z,100549.20
2023-04-27T22:09:41.670Z,100553.05
2023-04-27T22:14:44.461Z,100555.59
2023-04-27T22:19:47.318Z,100559.48
2023-04-27T22:24:50.058Z,100558.23
2023-04-27T22:29:52.823Z,100561.70
2023-04-27T22:34:56.747Z,100562.65
2023-04-27T22:39:59.756Z,100561.44
2023-04-27T22:45:02.665Z,100558.75
2023-04-27T22:50:06.676Z,100559.09
2023-04-27T22:55:11.644Z,100564.13
2023-04-27T23:00:15.466Z,100557.83
2023-04-27T23:05:18.295Z,100561.45
2023-04-27T23:10:21.549Z,100563.02
2023-04-27T23:15:24.382Z,100562.41
2023-04-27T23:20:29.024Z,100562.60
2023-04-27T23:25:33.607Z,100565.58
2023-04-27T23:30:36.700Z,100560.05
2023-04-27T23:35:39.581Z,100559.77
2023-04-27T23:40:42.385Z,100561.32
2023-04-27T23:45:50.478Z,100563.16
2023-04-27T23:51:03.784Z,100566.98
2023-04-27T23:56:15.191Z,100567.92
